Date,TemperatureHighF,TemperatureAvgF,TemperatureLowF,DewpointHighF,DewpointAvgF,DewpointLowF,HumidityHigh,HumidityAvg,HumidityLow,PressureMaxIn,PressureMinIn,WindSpeedMaxMPH,WindSpeedAvgMPH,GustSpeedMaxMPH,PrecipitationSumIn
2012-12-1,63,51,38,47,41,34,88,69,54,29.95,29.80,18,7,0,0.00
2012-12-2,62,58,53,55,51,44,96,80,59,29.85,29.72,17,8,0,0.16
2012-12-3,69,62,56,59,56,52,96,83,65,29.86,29.72,19,8,0,0.02
2012-12-4,63,52,42,55,46,36,89,79,66,29.96,29.73,17,7,0,0.26
2012-12-5,43,38,30,36,30,24,84,73,57,30.15,29.96,11,5,0,0.00
2012-12-6,46,37,28,37,30,24,85,75,64,30.02,29.71,10,5,0,0.00
2012-12-7,47,45,42,44,42,36,95,89,76,29.72,29.56,9,4,0,0.46
2012-12-8,46,44,40,45,42,36,96,91,82,29.79,29.56,12,5,0,0.13
2012-12-9,53,45,39,52,43,36,96,93,89,29.80,29.42,14,7,0,0.58
2012-12-10,45,33,29,43,30,25,94,87,81,29.70,29.45,19,11,0,0.00
2012-12-11,35,31,28,26,23,20,89,72,55,29.96,29.69,14,8,0,0.00
2012-12-12,44,32,23,25,22,20,90,70,42,30.12,29.96,9,4,0,0.00
2012-12-13,46,35,26,26,24,22,84,65,40,30.14,29.96,12,5,0,0.00
2012-12-14,52,41,31,29,26,22,68,56,41,30.01,29.86,11,4,0,0.00
2012-12-15,54,45,40,49,37,27,90,75,57,29.87,29.43,19,8,0,0.15
2012-12-16,55,50,42,50,45,38,89,81,72,29.48,29.38,17,8,0,0.00
2012-12-17,43,40,38,39,37,34,90,87,85,29.48,29.32,10,4,0,0.01
2012-12-18,41,38,35,35,33,30,91,83,76,29.58,29.39,18,8,0,0.00
2012-12-19,44,40,36,37,34,31,85,79,71,29.81,29.52,20,6,0,0.02
2012-12-20,53,43,30,47,38,27,91,83,69,29.60,28.89,40,17,0,0.56
2012-12-21,30,26,24,27,22,18,92,85,76,29.87,29.17,32,19,0,0.00
2012-12-22,32,24,15,19,16,12,87,75,58,30.00,29.77,15,6,0,0.00
2012-12-23,37,29,23,27,23,18,86,76,65,29.75,29.65,7,4,0,0.00
2012-12-24,36,31,28,33,27,24,91,85,82,29.77,29.52,17,6,0,0.01
2012-12-25,33,31,29,28,25,24,88,79,73,29.98,29.77,17,8,0,0.00
2012-12-26,32,29,26,28,25,22,92,85,79,29.80,29.45,24,16,0,0.00
2012-12-27,33,28,24,26,23,20,86,81,73,29.91,29.73,20,6,0,0.00
2012-12-28,31,29,27,27,25,23,93,84,77,29.89,29.59,8,4,0,0.00
2012-12-29,32,27,22,28,24,18,93,87,81,29.98,29.53,20,8,0,0.00
2012-12-30,30,23,13,20,16,10,89,76,64,30.16,29.98,16,8,0,0.00
2012-12-31,35,31,25,29,26,20,91,81,67,30.01,29.80,17,9,0,0.00